Portada
METAR-TAF:

METAR-TAF

Aeroports :

Aeroport de Roma-Urbe

Roma, Itàlia

latitud: 41-57N, longitud: 012-30E, altitud: 18 m

Observació

L'informe es va fer fa 5 hores i 51 minuts, a les 17:50 UTC
Vent 7 kt del Oest/Sud-Oest
Temperatura 32°C
Humitat 34%
Pressió 1015 hPa
Visibilitat 10 km o més
sense núvols per sota de 1500 mi sense presència de cumulonimbus.

METAR: LIRU 181750Z 25007KT CAVOK 32/14 Q1015

Hora: 01:41 (23:41 UTC)

Pronòstic

L'informe es va fer fa 9 hores i 41 minuts, a les 14:00 UTC
Pronòstic vàlid del 18 a les 15 UTC al 18 a les 24 UTC
Vent 10 kt del Oest
Visibilitat 10 km o més
sense núvols per sota de 1500 mi sense presència de cumulonimbus.
Evolucionant progressivament
l' 18 a les 18 UTC al 18 a les 20 UTC
Vent 5 kt amb direcció variable

TAF: LIRU 181400Z 1815/1824 26010KT CAVOK BECMG 1818/1820 VRB05KT

Observacions i pronòstics meteorològics de més de 4000 aeroports (METAR i TAF).

Les estacions disponibles són els punts grocs i vermells al mapa.

Posi el ratolí al punt desitjat per veure el nom de l'estació.

Feu clic per veure les observacions i els pronòstics meteorològics.

Per canviar el mapa: feu clic els botons verds amb una creu de color negre per apropar; al botó verd amb un guió per allunyar la imatge; o en les fletxes verdes per a mapes adjacents.


METAR-TAF: